sensor_id;sensor_type;location;lat;lon;timestamp;pressure;altitude;pressure_sealevel;temperature;humidity
57442;BME280;43284;47.042;15.498;2023-11-19T00:00:34;97622.78;;;2.16;100.00
57442;BME280;43284;47.042;15.498;2023-11-19T00:03:00;97622.84;;;2.15;100.00
57442;BME280;43284;47.042;15.498;2023-11-19T00:05:27;97616.81;;;2.13;100.00
57442;BME280;43284;47.042;15.498;2023-11-19T00:07:53;97606.53;;;2.10;100.00
57442;BME280;43284;47.042;15.498;2023-11-19T00:10:19;97597.09;;;2.09;100.00
57442;BME280;43284;47.042;15.498;2023-11-19T00:12:51;97597.97;;;2.06;100.00
57442;BME280;43284;47.042;15.498;2023-11-19T00:15:17;97606.56;;;2.05;100.00
57442;BME280;43284;47.042;15.498;2023-11-19T00:17:47;97604.00;;;2.03;100.00
57442;BME280;43284;47.042;15.498;2023-11-19T00:20:14;97598.81;;;2.06;100.00
57442;BME280;43284;47.042;15.498;2023-11-19T00:22:41;97603.03;;;2.17;100.00
57442;BME280;43284;47.042;15.498;2023-11-19T00:25:08;97603.03;;;2.17;100.00
57442;BME280;43284;47.042;15.498;2023-11-19T00:27:34;97597.91;;;2.15;100.00
57442;BME280;43284;47.042;15.498;2023-11-19T00:29:59;97601.28;;;2.23;100.00
57442;BME280;43284;47.042;15.498;2023-11-19T00:32:25;97597.81;;;2.24;100.00
57442;BME280;43284;47.042;15.498;2023-11-19T00:34:51;97595.22;;;2.26;100.00
57442;BME280;43284;47.042;15.498;2023-11-19T00:37:16;97598.66;;;2.28;100.00
57442;BME280;43284;47.042;15.498;2023-11-19T00:39:42;97587.47;;;2.28;100.00
57442;BME280;43284;47.042;15.498;2023-11-19T00:42:09;97572.84;;;2.28;100.00
57442;BME280;43284;47.042;15.498;2023-11-19T00:44:35;97563.38;;;2.30;100.00
57442;BME280;43284;47.042;15.498;2023-11-19T00:47:04;97560.81;;;2.27;100.00
57442;BME280;43284;47.042;15.498;2023-11-19T00:49:30;97584.91;;;2.23;100.00
57442;BME280;43284;47.042;15.498;2023-11-19T00:51:58;97589.22;;;2.25;100.00
57442;BME280;43284;47.042;15.498;2023-11-19T00:54:24;97571.16;;;2.24;100.00
57442;BME280;43284;47.042;15.498;2023-11-19T00:56:52;97562.53;;;2.28;100.00
57442;BME280;43284;47.042;15.498;2023-11-19T00:59:18;97550.50;;;2.27;100.00
57442;BME280;43284;47.042;15.498;2023-11-19T01:01:43;97550.50;;;2.27;100.00
57442;BME280;43284;47.042;15.498;2023-11-19T01:04:09;97561.66;;;2.31;100.00
57442;BME280;43284;47.042;15.498;2023-11-19T01:06:34;97556.50;;;2.31;100.00
57442;BME280;43284;47.042;15.498;2023-11-19T01:09:00;97551.34;;;2.29;100.00
57442;BME280;43284;47.042;15.498;2023-11-19T01:11:26;97561.66;;;2.31;100.00
57442;BME280;43284;47.042;15.498;2023-11-19T01:13:52;97566.81;;;2.31;100.00
57442;BME280;43284;47.042;15.498;2023-11-19T01:16:18;97571.13;;;2.30;100.00
57442;BME280;43284;47.042;15.498;2023-11-19T01:18:46;97565.91;;;2.32;100.00
57442;BME280;43284;47.042;15.498;2023-11-19T01:21:12;97564.22;;;2.31;100.00
57442;BME280;43284;47.042;15.498;2023-11-19T01:23:38;97547.06;;;2.26;97.54
57442;BME280;43284;47.042;15.498;2023-11-19T01:26:03;97540.19;;;2.27;97.41
57442;BME280;43284;47.042;15.498;2023-11-19T01:28:30;97545.34;;;2.27;97.27
57442;BME280;43284;47.042;15.498;2023-11-19T01:30:56;97534.16;;;2.30;97.39
57442;BME280;43284;47.042;15.498;2023-11-19T01:33:21;97532.44;;;2.30;96.17
57442;BME280;43284;47.042;15.498;2023-11-19T01:35:47;97524.69;;;2.30;95.45
57442;BME280;43284;47.042;15.498;2023-11-19T01:38:12;97529.81;;;2.33;96.67
57442;BME280;43284;47.042;15.498;2023-11-19T01:40:38;97514.31;;;2.35;97.59
57442;BME280;43284;47.042;15.498;2023-11-19T01:43:03;97509.16;;;2.32;94.43
57442;BME280;43284;47.042;15.498;2023-11-19T01:45:33;97503.13;;;2.36;96.77
57442;BME280;43284;47.042;15.498;2023-11-19T01:48:00;97498.84;;;2.36;94.29
57442;BME280;43284;47.042;15.498;2023-11-19T01:50:29;97493.63;;;2.39;96.98
57442;BME280;43284;47.042;15.498;2023-11-19T01:52:55;97491.91;;;2.38;96.47
57442;BME280;43284;47.042;15.498;2023-11-19T01:55:27;97488.47;;;2.38;95.02
57442;BME280;43284;47.042;15.498;2023-11-19T01:57:59;97485.03;;;2.39;97.37
57442;BME280;43284;47.042;15.498;2023-11-19T02:00:25;97482.47;;;2.39;97.23
57442;BME280;43284;47.042;15.498;2023-11-19T02:02:51;97479.91;;;2.36;94.83
57442;BME280;43284;47.042;15.498;2023-11-19T02:05:17;97473.94;;;2.32;95.02
57442;BME280;43284;47.042;15.498;2023-11-19T02:07:43;97468.78;;;2.32;96.46
57442;BME280;43284;47.042;15.498;2023-11-19T02:10:09;97467.09;;;2.28;95.69
57442;BME280;43284;47.042;15.498;2023-11-19T02:12:46;97462.00;;;2.23;95.78
57442;BME280;43284;47.042;15.498;2023-11-19T02:15:11;97456.84;;;2.20;97.38
57442;BME280;43284;47.042;15.498;2023-11-19T02:17:37;97448.28;;;2.20;96.84
57442;BME280;43284;47.042;15.498;2023-11-19T02:20:06;97444.78;;;2.22;95.95
57442;BME280;43284;47.042;15.498;2023-11-19T02:22:37;97442.28;;;2.18;96.22
57442;BME280;43284;47.042;15.498;2023-11-19T02:25:17;97439.75;;;2.15;99.80
57442;BME280;43284;47.042;15.498;2023-11-19T02:27:56;97437.16;;;2.15;100.00
57442;BME280;43284;47.042;15.498;2023-11-19T02:30:24;97443.97;;;2.20;100.00
57442;BME280;43284;47.042;15.498;2023-11-19T02:32:57;97432.75;;;2.23;100.00
57442;BME280;43284;47.042;15.498;2023-11-19T02:35:24;97421.59;;;2.22;100.00
57442;BME280;43284;47.042;15.498;2023-11-19T02:37:51;97422.47;;;2.20;100.00
57442;BME280;43284;47.042;15.498;2023-11-19T02:40:16;97426.75;;;2.22;100.00
57442;BME280;43284;47.042;15.498;2023-11-19T02:42:42;97430.16;;;2.23;100.00
57442;BME280;43284;47.042;15.498;2023-11-19T02:45:08;97417.31;;;2.20;100.00
57442;BME280;43284;47.042;15.498;2023-11-19T02:47:42;97422.53;;;2.15;100.00
57442;BME280;43284;47.042;15.498;2023-11-19T02:50:09;97413.13;;;2.13;100.00
57442;BME280;43284;47.042;15.498;2023-11-19T02:52:44;97405.44;;;2.08;100.00
57442;BME280;43284;47.042;15.498;2023-11-19T02:55:11;97403.69;;;2.09;100.00
57442;BME280;43284;47.042;15.498;2023-11-19T02:57:41;97387.34;;;2.10;100.00
57442;BME280;43284;47.042;15.498;2023-11-19T03:00:23;97395.91;;;2.12;100.00
57442;BME280;43284;47.042;15.498;2023-11-19T03:03:01;97388.13;;;2.18;100.00
57442;BME280;43284;47.042;15.498;2023-11-19T03:05:46;97380.44;;;2.15;100.00
57442;BME280;43284;47.042;15.498;2023-11-19T03:08:12;97377.81;;;2.16;100.00
57442;BME280;43284;47.042;15.498;2023-11-19T03:10:38;97382.19;;;2.11;100.00
57442;BME280;43284;47.042;15.498;2023-11-19T03:13:04;97377.91;;;2.07;100.00
57442;BME280;43284;47.042;15.498;2023-11-19T03:15:29;97372.75;;;2.09;100.00
57442;BME280;43284;47.042;15.498;2023-11-19T03:17:55;97371.00;;;2.11;100.00
57442;BME280;43284;47.042;15.498;2023-11-19T03:20:21;97372.75;;;2.10;100.00
57442;BME280;43284;47.042;15.498;2023-11-19T03:22:46;97370.19;;;2.07;100.00
57442;BME280;43284;47.042;15.498;2023-11-19T03:25:12;97363.34;;;2.04;100.00
57442;BME280;43284;47.042;15.498;2023-11-19T03:27:39;97360.66;;;2.14;100.00
57442;BME280;43284;47.042;15.498;2023-11-19T03:30:10;97351.28;;;2.08;100.00
57442;BME280;43284;47.042;15.498;2023-11-19T03:32:36;97346.97;;;2.09;100.00
57442;BME280;43284;47.042;15.498;2023-11-19T03:35:02;97335.75;;;2.13;100.00
57442;BME280;43284;47.042;15.498;2023-11-19T03:37:30;97334.78;;;2.20;100.00
57442;BME280;43284;47.042;15.498;2023-11-19T03:39:56;97334.00;;;2.15;100.00
57442;BME280;43284;47.042;15.498;2023-11-19T03:42:31;97336.53;;;2.18;100.00
57442;BME280;43284;47.042;15.498;2023-11-19T03:44:57;97327.94;;;2.19;100.00
57442;BME280;43284;47.042;15.498;2023-11-19T03:47:23;97321.00;;;2.22;100.00
57442;BME280;43284;47.042;15.498;2023-11-19T03:49:49;97310.63;;;2.27;100.00
57442;BME280;43284;47.042;15.498;2023-11-19T03:52:15;97313.19;;;2.27;100.00
57442;BME280;43284;47.042;15.498;2023-11-19T03:54:41;97317.63;;;2.19;100.00
57442;BME280;43284;47.042;15.498;2023-11-19T03:57:07;97310.81;;;2.13;100.00
57442;BME280;43284;47.042;15.498;2023-11-19T03:59:32;97315.16;;;2.10;100.00
57442;BME280;43284;47.042;15.498;2023-11-19T04:01:59;97312.63;;;2.06;100.00
57442;BME280;43284;47.042;15.498;2023-11-19T04:04:26;97311.69;;;2.12;100.00
57442;BME280;43284;47.042;15.498;2023-11-19T04:06:53;97305.56;;;2.21;100.00
57442;BME280;43284;47.042;15.498;2023-11-19T04:09:19;97303.78;;;2.26;100.00
57442;BME280;43284;47.042;15.498;2023-11-19T04:11:44;97296.03;;;2.26;100.00
57442;BME280;43284;47.042;15.498;2023-11-19T04:14:12;97294.28;;;2.30;100.00
57442;BME280;43284;47.042;15.498;2023-11-19T04:16:38;97283.84;;;2.36;100.00
57442;BME280;43284;47.042;15.498;2023-11-19T04:19:04;97277.84;;;2.35;100.00
57442;BME280;43284;47.042;15.498;2023-11-19T04:21:29;97276.03;;;2.40;100.00
57442;BME280;43284;47.042;15.498;2023-11-19T04:23:56;97276.09;;;2.39;100.00
57442;BME280;43284;47.042;15.498;2023-11-19T04:26:21;97291.66;;;2.33;100.00
57442;BME280;43284;47.042;15.498;2023-11-19T04:28:47;97277.97;;;2.28;100.00
57442;BME280;43284;47.042;15.498;2023-11-19T04:31:17;97281.38;;;2.30;100.00
57442;BME280;43284;47.042;15.498;2023-11-19T04:33:43;97264.13;;;2.32;100.00
57442;BME280;43284;47.042;15.498;2023-11-19T04:36:10;97264.94;;;2.35;100.00
57442;BME280;43284;47.042;15.498;2023-11-19T04:38:35;97270.13;;;2.35;100.00
57442;BME280;43284;47.042;15.498;2023-11-19T04:41:04;97280.44;;;2.34;100.00
57442;BME280;43284;47.042;15.498;2023-11-19T04:43:31;97276.19;;;2.31;100.00
57442;BME280;43284;47.042;15.498;2023-11-19T04:46:03;97274.50;;;2.30;100.00
57442;BME280;43284;47.042;15.498;2023-11-19T04:48:29;97275.34;;;2.29;100.00
57442;BME280;43284;47.042;15.498;2023-11-19T04:50:54;97274.50;;;2.27;100.00
57442;BME280;43284;47.042;15.498;2023-11-19T04:53:20;97270.19;;;2.29;100.00
57442;BME280;43284;47.042;15.498;2023-11-19T04:55:45;97275.44;;;2.23;100.00
57442;BME280;43284;47.042;15.498;2023-11-19T04:58:11;97260.91;;;2.17;100.00
57442;BME280;43284;47.042;15.498;2023-11-19T05:00:37;97260.03;;;2.18;100.00
57442;BME280;43284;47.042;15.498;2023-11-19T05:03:02;97260.91;;;2.19;100.00
57442;BME280;43284;47.042;15.498;2023-11-19T05:05:28;97263.63;;;2.06;100.00
57442;BME280;43284;47.042;15.498;2023-11-19T05:07:56;97251.69;;;1.99;100.00
57442;BME280;43284;47.042;15.498;2023-11-19T05:10:22;97236.25;;;1.96;100.00
57442;BME280;43284;47.042;15.498;2023-11-19T05:12:47;97237.22;;;1.88;100.00
57442;BME280;43284;47.042;15.498;2023-11-19T05:15:13;97244.25;;;1.75;100.00
57442;BME280;43284;47.042;15.498;2023-11-19T05:17:40;97244.38;;;1.65;100.00
57442;BME280;43284;47.042;15.498;2023-11-19T05:20:06;97239.38;;;1.53;100.00
57442;BME280;43284;47.042;15.498;2023-11-19T05:22:42;97223.13;;;1.48;100.00
57442;BME280;43284;47.042;15.498;2023-11-19T05:25:08;97221.50;;;1.41;100.00
57442;BME280;43284;47.042;15.498;2023-11-19T05:27:37;97215.53;;;1.36;100.00
57442;BME280;43284;47.042;15.498;2023-11-19T05:30:05;97205.31;;;1.28;100.00
57442;BME280;43284;47.042;15.498;2023-11-19T05:32:35;97210.53;;;1.22;100.00
57442;BME280;43284;47.042;15.498;2023-11-19T05:35:01;97212.31;;;1.18;100.00
57442;BME280;43284;47.042;15.498;2023-11-19T05:37:27;97215.72;;;1.16;100.00
57442;BME280;43284;47.042;15.498;2023-11-19T05:39:52;97214.88;;;1.15;100.00
57442;BME280;43284;47.042;15.498;2023-11-19T05:42:18;97214.06;;;1.13;100.00
57442;BME280;43284;47.042;15.498;2023-11-19T05:44:53;97219.28;;;1.04;100.00
57442;BME280;43284;47.042;15.498;2023-11-19T05:47:18;97227.84;;;1.06;100.00
57442;BME280;43284;47.042;15.498;2023-11-19T05:49:44;97228.72;;;1.07;100.00
57442;BME280;43284;47.042;15.498;2023-11-19T05:52:09;97233.00;;;1.08;100.00
57442;BME280;43284;47.042;15.498;2023-11-19T05:54:39;97209.84;;;1.08;100.00
57442;BME280;43284;47.042;15.498;2023-11-19T05:57:04;97205.41;;;1.20;100.00
57442;BME280;43284;47.042;15.498;2023-11-19T05:59:33;97196.69;;;1.32;100.00
57442;BME280;43284;47.042;15.498;2023-11-19T06:01:58;97205.97;;;1.44;100.00
57442;BME280;43284;47.042;15.498;2023-11-19T06:04:30;97211.06;;;1.50;100.00
57442;BME280;43284;47.042;15.498;2023-11-19T06:06:58;97198.06;;;1.59;100.00
57442;BME280;43284;47.042;15.498;2023-11-19T06:09:24;97196.25;;;1.68;100.00
57442;BME280;43284;47.042;15.498;2023-11-19T06:11:51;97193.66;;;1.71;100.00
57442;BME280;43284;47.042;15.498;2023-11-19T06:14:18;97191.81;;;1.79;100.00
57442;BME280;43284;47.042;15.498;2023-11-19T06:16:43;97176.41;;;1.74;100.00
57442;BME280;43284;47.042;15.498;2023-11-19T06:19:14;97174.69;;;1.75;100.00
57442;BME280;43284;47.042;15.498;2023-11-19T06:21:40;97179.75;;;1.84;100.00
57442;BME280;43284;47.042;15.498;2023-11-19T06:24:06;97187.41;;;1.89;100.00
57442;BME280;43284;47.042;15.498;2023-11-19T06:26:31;97187.56;;;1.76;100.00
57442;BME280;43284;47.042;15.498;2023-11-19T06:28:57;97191.88;;;1.73;100.00
57442;BME280;43284;47.042;15.498;2023-11-19T06:31:22;97186.72;;;1.74;100.00
57442;BME280;43284;47.042;15.498;2023-11-19T06:33:47;97190.97;;;1.78;100.00
57442;BME280;43284;47.042;15.498;2023-11-19T06:36:19;97191.81;;;1.79;100.00
57442;BME280;43284;47.042;15.498;2023-11-19T06:38:45;97176.28;;;1.83;100.00
57442;BME280;43284;47.042;15.498;2023-11-19T06:41:10;97171.81;;;1.98;100.00
57442;BME280;43284;47.042;15.498;2023-11-19T06:43:37;97172.66;;;1.98;100.00
57442;BME280;43284;47.042;15.498;2023-11-19T06:46:03;97172.63;;;2.01;100.00
57442;BME280;43284;47.042;15.498;2023-11-19T06:48:34;97171.66;;;2.05;100.00
57442;BME280;43284;47.042;15.498;2023-11-19T06:51:04;97169.16;;;2.01;100.00
57442;BME280;43284;47.042;15.498;2023-11-19T06:53:30;97170.75;;;2.10;100.00
57442;BME280;43284;47.042;15.498;2023-11-19T06:55:55;97163.00;;;2.13;100.00
57442;BME280;43284;47.042;15.498;2023-11-19T06:58:21;97167.22;;;2.17;100.00
57442;BME280;43284;47.042;15.498;2023-11-19T07:00:47;97173.16;;;2.23;100.00
57442;BME280;43284;47.042;15.498;2023-11-19T07:03:17;97177.34;;;2.29;100.00
57442;BME280;43284;47.042;15.498;2023-11-19T07:05:43;97185.00;;;2.34;100.00
57442;BME280;43284;47.042;15.498;2023-11-19T07:08:09;97184.22;;;2.30;100.00
57442;BME280;43284;47.042;15.498;2023-11-19T07:10:34;97189.41;;;2.27;100.00
57442;BME280;43284;47.042;15.498;2023-11-19T07:13:00;97188.56;;;2.26;100.00
57442;BME280;43284;47.042;15.498;2023-11-19T07:15:25;97190.25;;;2.29;100.00
57442;BME280;43284;47.042;15.498;2023-11-19T07:17:51;97196.28;;;2.28;100.00
57442;BME280;43284;47.042;15.498;2023-11-19T07:20:16;97196.28;;;2.28;100.00
57442;BME280;43284;47.042;15.498;2023-11-19T07:22:48;97198.88;;;2.26;100.00
57442;BME280;43284;47.042;15.498;2023-11-19T07:25:14;97190.25;;;2.29;100.00
57442;BME280;43284;47.042;15.498;2023-11-19T07:27:39;97183.34;;;2.31;100.00
57442;BME280;43284;47.042;15.498;2023-11-19T07:30:06;97184.16;;;2.33;100.00
57442;BME280;43284;47.042;15.498;2023-11-19T07:32:34;97171.25;;;2.35;100.00
57442;BME280;43284;47.042;15.498;2023-11-19T07:35:00;97161.78;;;2.35;100.00
57442;BME280;43284;47.042;15.498;2023-11-19T07:37:26;97139.41;;;2.36;100.00
57442;BME280;43284;47.042;15.498;2023-11-19T07:39:51;97119.66;;;2.35;100.00
57442;BME280;43284;47.042;15.498;2023-11-19T07:42:17;97099.03;;;2.35;100.00
57442;BME280;43284;47.042;15.498;2023-11-19T07:44:45;97077.50;;;2.36;100.00
57442;BME280;43284;47.042;15.498;2023-11-19T07:47:11;97118.78;;;2.36;100.00
57442;BME280;43284;47.042;15.498;2023-11-19T07:49:38;97146.31;;;2.34;100.00
57442;BME280;43284;47.042;15.498;2023-11-19T07:52:04;97140.28;;;2.36;100.00
57442;BME280;43284;47.042;15.498;2023-11-19T07:54:29;97145.38;;;2.38;100.00
57442;BME280;43284;47.042;15.498;2023-11-19T07:56:55;97161.91;;;2.28;100.00
57442;BME280;43284;47.042;15.498;2023-11-19T07:59:21;97173.84;;;2.33;100.00
57442;BME280;43284;47.042;15.498;2023-11-19T08:01:46;97130.84;;;2.34;100.00
57442;BME280;43284;47.042;15.498;2023-11-19T08:04:13;97145.44;;;2.36;100.00
57442;BME280;43284;47.042;15.498;2023-11-19T08:06:39;97166.06;;;2.36;100.00
57442;BME280;43284;47.042;15.498;2023-11-19T08:09:07;97178.16;;;2.34;100.00
57442;BME280;43284;47.042;15.498;2023-11-19T08:11:40;97180.72;;;2.34;100.00
57442;BME280;43284;47.042;15.498;2023-11-19T08:14:05;97168.66;;;2.35;100.00
57442;BME280;43284;47.042;15.498;2023-11-19T08:16:31;97163.50;;;2.35;100.00
57442;BME280;43284;47.042;15.498;2023-11-19T08:18:56;97170.41;;;2.34;100.00
57442;BME280;43284;47.042;15.498;2023-11-19T08:21:23;97158.34;;;2.35;100.00
57442;BME280;43284;47.042;15.498;2023-11-19T08:23:49;97155.75;;;2.36;100.00
57442;BME280;43284;47.042;15.498;2023-11-19T08:26:15;97165.13;;;2.40;100.00
57442;BME280;43284;47.042;15.498;2023-11-19T08:28:41;97161.59;;;2.46;100.00
57442;BME280;43284;47.042;15.498;2023-11-19T08:31:06;97155.53;;;2.50;100.00
57442;BME280;43284;47.042;15.498;2023-11-19T08:33:32;97136.44;;;2.60;100.00
57442;BME280;43284;47.042;15.498;2023-11-19T08:35:57;97131.13;;;2.68;100.00
57442;BME280;43284;47.042;15.498;2023-11-19T08:38:24;97120.59;;;2.79;100.00
57442;BME280;43284;47.042;15.498;2023-11-19T08:40:50;97119.69;;;2.83;100.00
57442;BME280;43284;47.042;15.498;2023-11-19T08:43:15;97118.69;;;2.88;100.00
57442;BME280;43284;47.042;15.498;2023-11-19T08:45:41;97107.38;;;2.96;100.00
57442;BME280;43284;47.042;15.498;2023-11-19T08:48:06;97118.41;;;3.04;100.00
57442;BME280;43284;47.042;15.498;2023-11-19T08:50:34;97112.25;;;3.11;100.00
57442;BME280;43284;47.042;15.498;2023-11-19T08:53:00;97106.00;;;3.21;100.00
57442;BME280;43284;47.042;15.498;2023-11-19T08:55:25;97104.25;;;3.23;100.00
57442;BME280;43284;47.042;15.498;2023-11-19T08:57:51;97109.28;;;3.29;99.41
57442;BME280;43284;47.042;15.498;2023-11-19T09:00:17;97111.75;;;3.36;100.00
57442;BME280;43284;47.042;15.498;2023-11-19T09:02:43;97109.97;;;3.39;100.00
57442;BME280;43284;47.042;15.498;2023-11-19T09:05:08;97102.13;;;3.44;100.00
57442;BME280;43284;47.042;15.498;2023-11-19T09:07:34;97095.06;;;3.50;100.00
57442;BME280;43284;47.042;15.498;2023-11-19T09:09:59;97094.84;;;3.61;100.00
57442;BME280;43284;47.042;15.498;2023-11-19T09:12:25;97088.56;;;3.71;100.00
57442;BME280;43284;47.042;15.498;2023-11-19T09:14:51;97086.56;;;3.84;96.90
57442;BME280;43284;47.042;15.498;2023-11-19T09:17:16;97090.53;;;3.99;98.16
57442;BME280;43284;47.042;15.498;2023-11-19T09:19:43;97092.94;;;4.07;97.68
57442;BME280;43284;47.042;15.498;2023-11-19T09:22:08;97098.94;;;4.09;94.26
57442;BME280;43284;47.042;15.498;2023-11-19T09:24:34;97094.66;;;4.06;90.25
57442;BME280;43284;47.042;15.498;2023-11-19T09:26:59;97073.16;;;4.04;91.30
57442;BME280;43284;47.042;15.498;2023-11-19T09:29:25;97070.50;;;4.07;93.80
57442;BME280;43284;47.042;15.498;2023-11-19T09:31:51;97066.97;;;4.11;93.30
57442;BME280;43284;47.042;15.498;2023-11-19T09:34:17;97066.00;;;4.16;94.80
57442;BME280;43284;47.042;15.498;2023-11-19T09:36:42;97080.91;;;4.04;91.89
57442;BME280;43284;47.042;15.498;2023-11-19T09:39:12;97077.31;;;4.11;93.28
57442;BME280;43284;47.042;15.498;2023-11-19T09:41:40;97074.59;;;4.16;95.11
57442;BME280;43284;47.042;15.498;2023-11-19T09:44:08;97069.09;;;4.30;96.75
57442;BME280;43284;47.042;15.498;2023-11-19T09:46:35;97060.09;;;4.45;95.24
57442;BME280;43284;47.042;15.498;2023-11-19T09:49:02;97056.44;;;4.52;94.12
57442;BME280;43284;47.042;15.498;2023-11-19T09:51:29;97048.44;;;4.61;95.94
57442;BME280;43284;47.042;15.498;2023-11-19T09:53:54;97012.97;;;4.65;92.29
57442;BME280;43284;47.042;15.498;2023-11-19T09:56:20;97010.97;;;4.74;93.66
57442;BME280;43284;47.042;15.498;2023-11-19T09:58:46;97023.59;;;4.85;92.77
57442;BME280;43284;47.042;15.498;2023-11-19T10:01:12;97033.09;;;4.86;91.50
57442;BME280;43284;47.042;15.498;2023-11-19T10:03:39;97039.88;;;4.90;91.61
57442;BME280;43284;47.042;15.498;2023-11-19T10:06:08;97047.38;;;5.00;90.61
57442;BME280;43284;47.042;15.498;2023-11-19T10:08:39;97036.75;;;5.09;88.85
57442;BME280;43284;47.042;15.498;2023-11-19T10:11:09;97038.38;;;5.13;87.92
57442;BME280;43284;47.042;15.498;2023-11-19T10:13:38;97021.03;;;5.15;87.37
57442;BME280;43284;47.042;15.498;2023-11-19T10:16:08;97007.13;;;5.18;88.21
57442;BME280;43284;47.042;15.498;2023-11-19T10:18:34;96995.91;;;5.19;88.21
57442;BME280;43284;47.042;15.498;2023-11-19T10:21:09;96983.81;;;5.18;86.52
57442;BME280;43284;47.042;15.498;2023-11-19T10:23:52;96980.28;;;5.20;88.41
57442;BME280;43284;47.042;15.498;2023-11-19T10:26:19;96974.91;;;5.26;88.18
57442;BME280;43284;47.042;15.498;2023-11-19T10:28:46;96963.72;;;5.26;85.02
57442;BME280;43284;47.042;15.498;2023-11-19T10:31:16;96962.09;;;5.22;85.71
57442;BME280;43284;47.042;15.498;2023-11-19T10:33:43;96951.31;;;5.35;87.50
57442;BME280;43284;47.042;15.498;2023-11-19T10:36:11;96946.84;;;5.41;86.26
57442;BME280;43284;47.042;15.498;2023-11-19T10:38:38;96943.16;;;5.48;87.78
57442;BME280;43284;47.042;15.498;2023-11-19T10:41:04;96946.41;;;5.54;86.73
57442;BME280;43284;47.042;15.498;2023-11-19T10:43:31;96945.50;;;5.55;86.50
57442;BME280;43284;47.042;15.498;2023-11-19T10:46:12;96933.13;;;5.64;86.72
57442;BME280;43284;47.042;15.498;2023-11-19T10:48:39;96929.31;;;5.75;87.04
57442;BME280;43284;47.042;15.498;2023-11-19T10:51:06;96934.97;;;5.87;86.80
57442;BME280;43284;47.042;15.498;2023-11-19T10:53:37;96924.69;;;5.84;83.26
57442;BME280;43284;47.042;15.498;2023-11-19T10:56:10;96920.09;;;5.92;85.17
57442;BME280;43284;47.042;15.498;2023-11-19T10:58:36;96922.78;;;6.15;79.49
57442;BME280;43284;47.042;15.498;2023-11-19T11:01:11;96935.81;;;6.14;82.39
57442;BME280;43284;47.042;15.498;2023-11-19T11:03:39;96928.94;;;6.13;82.17
57442;BME280;43284;47.042;15.498;2023-11-19T11:06:05;96927.38;;;6.07;79.19
57442;BME280;43284;47.042;15.498;2023-11-19T11:08:31;96919.38;;;5.88;78.97
57442;BME280;43284;47.042;15.498;2023-11-19T11:10:57;96911.09;;;6.04;82.94
57442;BME280;43284;47.042;15.498;2023-11-19T11:13:24;96914.94;;;6.17;84.45
57442;BME280;43284;47.042;15.498;2023-11-19T11:15:50;96905.81;;;6.30;81.41
57442;BME280;43284;47.042;15.498;2023-11-19T11:18:17;96908.47;;;6.29;80.11
57442;BME280;43284;47.042;15.498;2023-11-19T11:20:47;96913.63;;;6.30;80.60
57442;BME280;43284;47.042;15.498;2023-11-19T11:26:23;96924.41;;;6.43;80.31
57442;BME280;43284;47.042;15.498;2023-11-19T11:32:43;96904.69;;;6.37;76.66
57442;BME280;43284;47.042;15.498;2023-11-19T11:37:49;96896.91;;;6.37;78.76
57442;BME280;43284;47.042;15.498;2023-11-19T11:40:16;96884.03;;;6.58;81.85
57442;BME280;43284;47.042;15.498;2023-11-19T11:42:44;96885.34;;;6.70;80.92
57442;BME280;43284;47.042;15.498;2023-11-19T11:45:11;96877.94;;;6.83;79.16
57442;BME280;43284;47.042;15.498;2023-11-19T11:50:14;96856.59;;;6.96;78.00
57442;BME280;43284;47.042;15.498;2023-11-19T11:58:31;96853.91;;;7.21;76.38
57442;BME280;43284;47.042;15.498;2023-11-19T12:01:01;96845.31;;;7.19;75.80
57442;BME280;43284;47.042;15.498;2023-11-19T12:03:28;96841.66;;;7.23;76.26
57442;BME280;43284;47.042;15.498;2023-11-19T12:05:54;96851.03;;;7.28;76.71
57442;BME280;43284;47.042;15.498;2023-11-19T12:08:25;96845.72;;;7.31;75.45
57442;BME280;43284;47.042;15.498;2023-11-19T12:10:52;96847.22;;;7.36;76.20
57442;BME280;43284;47.042;15.498;2023-11-19T12:13:19;96842.53;;;7.45;76.28
57442;BME280;43284;47.042;15.498;2023-11-19T12:18:23;96830.47;;;7.64;75.79
57442;BME280;43284;47.042;15.498;2023-11-19T12:20:53;96834.25;;;7.77;77.04
57442;BME280;43284;47.042;15.498;2023-11-19T12:23:18;96836.63;;;7.82;72.95
57442;BME280;43284;47.042;15.498;2023-11-19T12:25:44;96830.34;;;7.88;73.08
57442;BME280;43284;47.042;15.498;2023-11-19T12:28:15;96820.72;;;7.90;72.33
57442;BME280;43284;47.042;15.498;2023-11-19T12:30:45;96823.03;;;7.96;72.33
57442;BME280;43284;47.042;15.498;2023-11-19T12:33:12;96829.78;;;8.00;72.39
57442;BME280;43284;47.042;15.498;2023-11-19T12:35:41;96827.59;;;8.11;73.75
57442;BME280;43284;47.042;15.498;2023-11-19T12:38:08;96815.19;;;8.16;72.42
57442;BME280;43284;47.042;15.498;2023-11-19T12:40:46;96817.53;;;8.22;71.92
57442;BME280;43284;47.042;15.498;2023-11-19T12:43:21;96812.41;;;8.40;70.50
57442;BME280;43284;47.042;15.498;2023-11-19T12:45:47;96815.53;;;8.48;68.63
57442;BME280;43284;47.042;15.498;2023-11-19T12:48:13;96816.47;;;8.66;68.88
57442;BME280;43284;47.042;15.498;2023-11-19T12:53:20;96812.63;;;8.92;68.66
57442;BME280;43284;47.042;15.498;2023-11-19T12:55:46;96802.97;;;9.12;63.41
57442;BME280;43284;47.042;15.498;2023-11-19T12:58:31;96802.69;;;9.35;63.84
57442;BME280;43284;47.042;15.498;2023-11-19T13:01:00;96800.84;;;9.72;63.81
57442;BME280;43284;47.042;15.498;2023-11-19T13:03:30;96803.09;;;9.80;62.61
57442;BME280;43284;47.042;15.498;2023-11-19T13:06:01;96791.38;;;10.04;60.52
57442;BME280;43284;47.042;15.498;2023-11-19T13:08:28;96801.00;;;10.20;61.84
57442;BME280;43284;47.042;15.498;2023-11-19T13:10:53;96802.28;;;10.28;60.51
57442;BME280;43284;47.042;15.498;2023-11-19T13:13:19;96804.69;;;10.33;59.90
57442;BME280;43284;47.042;15.498;2023-11-19T13:15:45;96792.06;;;10.41;60.42